sensor_id;sensor_type;location;lat;lon;timestamp;temperature;humidity
28614;DHT22;15806;53.548;9.964;2023-08-07T00:00:56;17.10;99.90
28614;DHT22;15806;53.548;9.964;2023-08-07T00:02:37;17.10;99.90
28614;DHT22;15806;53.548;9.964;2023-08-07T00:04:17;17.10;99.90
28614;DHT22;15806;53.548;9.964;2023-08-07T00:05:58;17.00;99.90
28614;DHT22;15806;53.548;9.964;2023-08-07T00:07:38;17.00;99.90
28614;DHT22;15806;53.548;9.964;2023-08-07T00:09:19;16.90;99.90
28614;DHT22;15806;53.548;9.964;2023-08-07T00:11:07;16.90;99.90
28614;DHT22;15806;53.548;9.964;2023-08-07T00:12:47;16.90;99.90
28614;DHT22;15806;53.548;9.964;2023-08-07T00:14:28;16.80;99.90
28614;DHT22;15806;53.548;9.964;2023-08-07T00:16:08;16.80;99.90
28614;DHT22;15806;53.548;9.964;2023-08-07T00:17:49;16.80;99.90
28614;DHT22;15806;53.548;9.964;2023-08-07T00:19:29;16.70;99.90
28614;DHT22;15806;53.548;9.964;2023-08-07T00:21:10;16.70;99.90
28614;DHT22;15806;53.548;9.964;2023-08-07T00:22:50;16.70;99.90
28614;DHT22;15806;53.548;9.964;2023-08-07T00:24:31;16.60;99.90
28614;DHT22;15806;53.548;9.964;2023-08-07T00:26:12;16.60;99.90
28614;DHT22;15806;53.548;9.964;2023-08-07T00:27:52;16.60;99.90
28614;DHT22;15806;53.548;9.964;2023-08-07T00:29:33;16.60;99.90
28614;DHT22;15806;53.548;9.964;2023-08-07T00:31:13;16.60;99.90
28614;DHT22;15806;53.548;9.964;2023-08-07T00:32:54;16.60;99.90
28614;DHT22;15806;53.548;9.964;2023-08-07T00:34:34;16.60;99.90
28614;DHT22;15806;53.548;9.964;2023-08-07T00:36:14;16.60;99.90
28614;DHT22;15806;53.548;9.964;2023-08-07T00:37:55;16.60;99.90
28614;DHT22;15806;53.548;9.964;2023-08-07T00:39:35;16.50;99.90
28614;DHT22;15806;53.548;9.964;2023-08-07T00:41:17;16.60;99.90
28614;DHT22;15806;53.548;9.964;2023-08-07T00:42:57;16.60;99.90
28614;DHT22;15806;53.548;9.964;2023-08-07T00:44:38;16.60;99.90
28614;DHT22;15806;53.548;9.964;2023-08-07T00:46:19;16.60;99.90
28614;DHT22;15806;53.548;9.964;2023-08-07T00:47:59;16.60;99.90
28614;DHT22;15806;53.548;9.964;2023-08-07T00:49:40;16.60;99.90
28614;DHT22;15806;53.548;9.964;2023-08-07T00:51:21;16.60;99.90
28614;DHT22;15806;53.548;9.964;2023-08-07T00:53:01;16.60;99.90
28614;DHT22;15806;53.548;9.964;2023-08-07T00:54:42;16.60;99.90
28614;DHT22;15806;53.548;9.964;2023-08-07T00:56:23;16.60;99.90
28614;DHT22;15806;53.548;9.964;2023-08-07T00:58:04;16.70;99.90
28614;DHT22;15806;53.548;9.964;2023-08-07T00:59:44;16.70;99.90
28614;DHT22;15806;53.548;9.964;2023-08-07T01:01:25;16.60;99.90
28614;DHT22;15806;53.548;9.964;2023-08-07T01:03:06;16.60;99.90
28614;DHT22;15806;53.548;9.964;2023-08-07T01:04:47;16.70;99.90
28614;DHT22;15806;53.548;9.964;2023-08-07T01:06:27;16.70;99.90
28614;DHT22;15806;53.548;9.964;2023-08-07T01:08:08;16.70;99.90
28614;DHT22;15806;53.548;9.964;2023-08-07T01:09:49;16.70;99.90
28614;DHT22;15806;53.548;9.964;2023-08-07T01:11:49;16.70;99.90
28614;DHT22;15806;53.548;9.964;2023-08-07T01:15:39;16.70;99.90
28614;DHT22;15806;53.548;9.964;2023-08-07T01:17:21;16.70;99.90
28614;DHT22;15806;53.548;9.964;2023-08-07T01:19:03;16.70;99.90
28614;DHT22;15806;53.548;9.964;2023-08-07T01:20:44;16.70;99.90
28614;DHT22;15806;53.548;9.964;2023-08-07T01:22:25;16.70;99.90
28614;DHT22;15806;53.548;9.964;2023-08-07T01:24:05;16.70;99.90
28614;DHT22;15806;53.548;9.964;2023-08-07T01:25:46;16.70;99.90
28614;DHT22;15806;53.548;9.964;2023-08-07T01:27:37;16.70;99.90
28614;DHT22;15806;53.548;9.964;2023-08-07T01:29:34;16.70;99.90
28614;DHT22;15806;53.548;9.964;2023-08-07T01:31:19;16.70;99.90
28614;DHT22;15806;53.548;9.964;2023-08-07T01:35:03;16.70;99.90
28614;DHT22;15806;53.548;9.964;2023-08-07T01:36:46;16.70;99.90
28614;DHT22;15806;53.548;9.964;2023-08-07T01:38:29;16.80;99.90
28614;DHT22;15806;53.548;9.964;2023-08-07T01:40:10;16.80;99.90
28614;DHT22;15806;53.548;9.964;2023-08-07T01:41:53;16.80;99.90
28614;DHT22;15806;53.548;9.964;2023-08-07T01:43:34;16.80;99.90
28614;DHT22;15806;53.548;9.964;2023-08-07T01:45:24;16.80;99.90
28614;DHT22;15806;53.548;9.964;2023-08-07T01:47:05;16.80;99.90
28614;DHT22;15806;53.548;9.964;2023-08-07T01:48:46;16.80;99.90
28614;DHT22;15806;53.548;9.964;2023-08-07T01:50:27;16.80;99.90
28614;DHT22;15806;53.548;9.964;2023-08-07T01:52:08;16.80;99.90
28614;DHT22;15806;53.548;9.964;2023-08-07T01:53:49;16.80;99.90
28614;DHT22;15806;53.548;9.964;2023-08-07T01:55:29;16.80;99.90
28614;DHT22;15806;53.548;9.964;2023-08-07T01:57:10;16.80;99.90
28614;DHT22;15806;53.548;9.964;2023-08-07T01:58:50;16.80;99.90
28614;DHT22;15806;53.548;9.964;2023-08-07T02:00:31;16.80;99.90
28614;DHT22;15806;53.548;9.964;2023-08-07T02:02:11;16.80;99.90
28614;DHT22;15806;53.548;9.964;2023-08-07T02:03:52;16.80;99.90
28614;DHT22;15806;53.548;9.964;2023-08-07T02:05:32;16.80;99.90
28614;DHT22;15806;53.548;9.964;2023-08-07T02:07:13;16.80;99.90
28614;DHT22;15806;53.548;9.964;2023-08-07T02:08:53;16.80;99.90
28614;DHT22;15806;53.548;9.964;2023-08-07T02:10:34;16.70;99.90
28614;DHT22;15806;53.548;9.964;2023-08-07T02:12:15;16.80;99.90
28614;DHT22;15806;53.548;9.964;2023-08-07T02:13:55;16.80;99.90
28614;DHT22;15806;53.548;9.964;2023-08-07T02:15:36;16.80;99.90
28614;DHT22;15806;53.548;9.964;2023-08-07T02:17:16;16.80;99.90
28614;DHT22;15806;53.548;9.964;2023-08-07T02:18:57;16.80;99.90
28614;DHT22;15806;53.548;9.964;2023-08-07T02:20:37;16.80;99.90
28614;DHT22;15806;53.548;9.964;2023-08-07T02:22:18;16.70;99.90
28614;DHT22;15806;53.548;9.964;2023-08-07T02:23:58;16.70;99.90
28614;DHT22;15806;53.548;9.964;2023-08-07T02:25:39;16.70;99.90
28614;DHT22;15806;53.548;9.964;2023-08-07T02:27:19;16.70;99.90
28614;DHT22;15806;53.548;9.964;2023-08-07T02:29:00;16.60;99.90
28614;DHT22;15806;53.548;9.964;2023-08-07T02:30:40;16.60;99.90
28614;DHT22;15806;53.548;9.964;2023-08-07T02:32:21;16.60;99.90
28614;DHT22;15806;53.548;9.964;2023-08-07T02:34:01;16.60;99.90
28614;DHT22;15806;53.548;9.964;2023-08-07T02:35:42;16.60;99.90
28614;DHT22;15806;53.548;9.964;2023-08-07T02:37:22;16.60;99.90
28614;DHT22;15806;53.548;9.964;2023-08-07T02:39:04;16.50;99.90
28614;DHT22;15806;53.548;9.964;2023-08-07T02:40:44;16.50;99.90
28614;DHT22;15806;53.548;9.964;2023-08-07T02:42:25;16.50;99.90
28614;DHT22;15806;53.548;9.964;2023-08-07T02:44:05;16.50;99.90
28614;DHT22;15806;53.548;9.964;2023-08-07T02:45:46;16.50;99.90
28614;DHT22;15806;53.548;9.964;2023-08-07T02:47:26;16.50;99.90
28614;DHT22;15806;53.548;9.964;2023-08-07T02:49:07;16.50;99.90
28614;DHT22;15806;53.548;9.964;2023-08-07T02:50:47;16.50;99.90
28614;DHT22;15806;53.548;9.964;2023-08-07T02:52:28;16.50;99.90
28614;DHT22;15806;53.548;9.964;2023-08-07T02:54:08;16.50;99.90
28614;DHT22;15806;53.548;9.964;2023-08-07T02:55:49;16.50;99.90
28614;DHT22;15806;53.548;9.964;2023-08-07T02:57:29;16.50;99.90
28614;DHT22;15806;53.548;9.964;2023-08-07T02:59:10;16.50;99.90
28614;DHT22;15806;53.548;9.964;2023-08-07T03:00:50;16.60;99.90
28614;DHT22;15806;53.548;9.964;2023-08-07T03:02:31;16.60;99.90
28614;DHT22;15806;53.548;9.964;2023-08-07T03:04:11;16.50;99.90
28614;DHT22;15806;53.548;9.964;2023-08-07T03:05:52;16.60;99.90
28614;DHT22;15806;53.548;9.964;2023-08-07T03:07:32;16.60;99.90
28614;DHT22;15806;53.548;9.964;2023-08-07T03:09:13;16.60;99.90
28614;DHT22;15806;53.548;9.964;2023-08-07T03:10:55;16.60;99.90
28614;DHT22;15806;53.548;9.964;2023-08-07T03:12:35;16.60;99.90
28614;DHT22;15806;53.548;9.964;2023-08-07T03:14:16;16.60;99.90
28614;DHT22;15806;53.548;9.964;2023-08-07T03:16:03;16.60;99.90
28614;DHT22;15806;53.548;9.964;2023-08-07T03:17:44;16.60;99.90
28614;DHT22;15806;53.548;9.964;2023-08-07T03:19:25;16.60;99.90
28614;DHT22;15806;53.548;9.964;2023-08-07T03:21:05;16.60;99.90
28614;DHT22;15806;53.548;9.964;2023-08-07T03:22:46;16.60;99.90
28614;DHT22;15806;53.548;9.964;2023-08-07T03:24:26;16.70;99.90
28614;DHT22;15806;53.548;9.964;2023-08-07T03:26:11;16.60;99.90
28614;DHT22;15806;53.548;9.964;2023-08-07T03:27:51;16.60;99.90
28614;DHT22;15806;53.548;9.964;2023-08-07T03:29:32;16.70;99.90
28614;DHT22;15806;53.548;9.964;2023-08-07T03:31:12;16.60;99.90
28614;DHT22;15806;53.548;9.964;2023-08-07T03:32:53;16.60;99.90
28614;DHT22;15806;53.548;9.964;2023-08-07T03:34:33;16.70;99.90
28614;DHT22;15806;53.548;9.964;2023-08-07T03:36:14;16.70;99.90
28614;DHT22;15806;53.548;9.964;2023-08-07T03:37:54;16.70;99.90
28614;DHT22;15806;53.548;9.964;2023-08-07T03:39:35;16.70;99.90
28614;DHT22;15806;53.548;9.964;2023-08-07T03:41:15;16.70;99.90
28614;DHT22;15806;53.548;9.964;2023-08-07T03:42:56;16.70;99.90
28614;DHT22;15806;53.548;9.964;2023-08-07T03:44:36;16.80;99.90
28614;DHT22;15806;53.548;9.964;2023-08-07T03:46:17;16.80;99.90
28614;DHT22;15806;53.548;9.964;2023-08-07T03:47:57;16.80;99.90
28614;DHT22;15806;53.548;9.964;2023-08-07T03:49:38;16.80;99.90
28614;DHT22;15806;53.548;9.964;2023-08-07T03:51:18;16.90;99.90
28614;DHT22;15806;53.548;9.964;2023-08-07T03:52:59;16.90;99.90
28614;DHT22;15806;53.548;9.964;2023-08-07T03:54:39;16.90;99.90
28614;DHT22;15806;53.548;9.964;2023-08-07T03:56:20;16.90;99.90
28614;DHT22;15806;53.548;9.964;2023-08-07T03:58:00;16.90;99.90
28614;DHT22;15806;53.548;9.964;2023-08-07T03:59:41;17.00;99.90
28614;DHT22;15806;53.548;9.964;2023-08-07T04:01:21;16.90;99.90
28614;DHT22;15806;53.548;9.964;2023-08-07T04:03:02;17.00;99.90
28614;DHT22;15806;53.548;9.964;2023-08-07T04:04:42;17.00;99.90
28614;DHT22;15806;53.548;9.964;2023-08-07T04:06:23;17.10;99.90
28614;DHT22;15806;53.548;9.964;2023-08-07T04:08:04;17.10;99.90
28614;DHT22;15806;53.548;9.964;2023-08-07T04:09:44;17.10;99.90
28614;DHT22;15806;53.548;9.964;2023-08-07T04:11:25;17.10;99.90
28614;DHT22;15806;53.548;9.964;2023-08-07T04:13:05;17.10;99.90
28614;DHT22;15806;53.548;9.964;2023-08-07T04:14:46;17.10;99.90
28614;DHT22;15806;53.548;9.964;2023-08-07T04:16:26;17.20;99.90
28614;DHT22;15806;53.548;9.964;2023-08-07T04:18:07;17.20;99.90
28614;DHT22;15806;53.548;9.964;2023-08-07T04:19:47;17.20;99.90
28614;DHT22;15806;53.548;9.964;2023-08-07T04:21:28;17.30;99.90
28614;DHT22;15806;53.548;9.964;2023-08-07T04:23:08;17.30;99.90
28614;DHT22;15806;53.548;9.964;2023-08-07T04:24:49;17.30;99.90
28614;DHT22;15806;53.548;9.964;2023-08-07T04:26:29;17.30;99.90
28614;DHT22;15806;53.548;9.964;2023-08-07T04:28:10;17.40;99.90
28614;DHT22;15806;53.548;9.964;2023-08-07T04:29:50;17.40;99.90
28614;DHT22;15806;53.548;9.964;2023-08-07T04:31:31;17.40;99.90
28614;DHT22;15806;53.548;9.964;2023-08-07T04:33:11;17.40;99.90
28614;DHT22;15806;53.548;9.964;2023-08-07T04:34:52;17.40;99.90
28614;DHT22;15806;53.548;9.964;2023-08-07T04:36:32;17.40;99.90
28614;DHT22;15806;53.548;9.964;2023-08-07T04:38:14;17.50;99.90
28614;DHT22;15806;53.548;9.964;2023-08-07T04:39:54;17.50;99.90
28614;DHT22;15806;53.548;9.964;2023-08-07T04:41:35;17.50;99.90
28614;DHT22;15806;53.548;9.964;2023-08-07T04:43:17;17.50;99.90
28614;DHT22;15806;53.548;9.964;2023-08-07T04:44:57;17.50;99.90
28614;DHT22;15806;53.548;9.964;2023-08-07T04:46:38;17.50;99.90
28614;DHT22;15806;53.548;9.964;2023-08-07T04:48:18;17.50;99.90
28614;DHT22;15806;53.548;9.964;2023-08-07T04:49:59;17.50;99.90
28614;DHT22;15806;53.548;9.964;2023-08-07T04:51:39;17.60;99.90
28614;DHT22;15806;53.548;9.964;2023-08-07T04:53:20;17.60;99.90
28614;DHT22;15806;53.548;9.964;2023-08-07T04:55:00;17.60;99.90
28614;DHT22;15806;53.548;9.964;2023-08-07T04:56:41;17.60;99.90
28614;DHT22;15806;53.548;9.964;2023-08-07T04:58:21;17.60;99.90
28614;DHT22;15806;53.548;9.964;2023-08-07T05:00:02;17.60;99.90
28614;DHT22;15806;53.548;9.964;2023-08-07T05:01:43;17.70;99.90
28614;DHT22;15806;53.548;9.964;2023-08-07T05:03:24;17.70;99.90
28614;DHT22;15806;53.548;9.964;2023-08-07T05:05:05;17.80;99.90
28614;DHT22;15806;53.548;9.964;2023-08-07T05:06:46;17.80;99.90
28614;DHT22;15806;53.548;9.964;2023-08-07T05:08:27;17.90;99.90
28614;DHT22;15806;53.548;9.964;2023-08-07T05:10:08;17.90;99.90
28614;DHT22;15806;53.548;9.964;2023-08-07T05:11:49;17.90;99.90
28614;DHT22;15806;53.548;9.964;2023-08-07T05:13:30;18.00;99.90
28614;DHT22;15806;53.548;9.964;2023-08-07T05:15:10;18.00;99.90
28614;DHT22;15806;53.548;9.964;2023-08-07T05:16:51;18.00;99.90
28614;DHT22;15806;53.548;9.964;2023-08-07T05:18:31;18.00;99.90
28614;DHT22;15806;53.548;9.964;2023-08-07T05:20:12;18.10;99.90
28614;DHT22;15806;53.548;9.964;2023-08-07T05:21:53;18.10;99.90
28614;DHT22;15806;53.548;9.964;2023-08-07T05:23:34;18.10;99.90
28614;DHT22;15806;53.548;9.964;2023-08-07T05:25:15;18.10;99.90
28614;DHT22;15806;53.548;9.964;2023-08-07T05:26:56;18.10;99.90
28614;DHT22;15806;53.548;9.964;2023-08-07T05:28:36;18.10;99.90
28614;DHT22;15806;53.548;9.964;2023-08-07T05:30:17;18.10;99.90
28614;DHT22;15806;53.548;9.964;2023-08-07T05:31:57;18.10;99.90
28614;DHT22;15806;53.548;9.964;2023-08-07T05:33:38;18.10;99.90
28614;DHT22;15806;53.548;9.964;2023-08-07T05:35:18;18.10;99.90
28614;DHT22;15806;53.548;9.964;2023-08-07T05:36:59;18.10;99.90
28614;DHT22;15806;53.548;9.964;2023-08-07T05:38:39;18.10;99.90
28614;DHT22;15806;53.548;9.964;2023-08-07T05:40:20;18.10;99.90
28614;DHT22;15806;53.548;9.964;2023-08-07T05:42:01;18.10;99.90
28614;DHT22;15806;53.548;9.964;2023-08-07T05:43:41;18.10;99.90
28614;DHT22;15806;53.548;9.964;2023-08-07T05:45:22;18.10;99.90
28614;DHT22;15806;53.548;9.964;2023-08-07T05:47:02;18.10;99.90
28614;DHT22;15806;53.548;9.964;2023-08-07T05:48:43;18.10;99.90
28614;DHT22;15806;53.548;9.964;2023-08-07T05:50:23;18.00;99.90
28614;DHT22;15806;53.548;9.964;2023-08-07T05:52:04;18.10;99.90
28614;DHT22;15806;53.548;9.964;2023-08-07T05:53:45;18.10;99.90
28614;DHT22;15806;53.548;9.964;2023-08-07T05:55:26;18.10;99.90
28614;DHT22;15806;53.548;9.964;2023-08-07T05:57:06;18.10;99.90
28614;DHT22;15806;53.548;9.964;2023-08-07T05:58:47;18.10;99.90
28614;DHT22;15806;53.548;9.964;2023-08-07T06:00:27;18.10;99.90
28614;DHT22;15806;53.548;9.964;2023-08-07T06:02:08;18.10;99.90
28614;DHT22;15806;53.548;9.964;2023-08-07T06:03:48;18.10;99.90
28614;DHT22;15806;53.548;9.964;2023-08-07T06:05:29;18.10;99.90
28614;DHT22;15806;53.548;9.964;2023-08-07T06:07:09;18.10;99.90
28614;DHT22;15806;53.548;9.964;2023-08-07T06:08:50;18.10;99.90
28614;DHT22;15806;53.548;9.964;2023-08-07T06:10:30;18.10;99.90
28614;DHT22;15806;53.548;9.964;2023-08-07T06:12:11;18.00;99.90
28614;DHT22;15806;53.548;9.964;2023-08-07T06:13:51;18.00;99.90
28614;DHT22;15806;53.548;9.964;2023-08-07T06:15:32;17.90;99.90
28614;DHT22;15806;53.548;9.964;2023-08-07T06:17:12;17.90;99.90
28614;DHT22;15806;53.548;9.964;2023-08-07T06:18:53;17.80;99.90
28614;DHT22;15806;53.548;9.964;2023-08-07T06:20:34;17.70;99.90
28614;DHT22;15806;53.548;9.964;2023-08-07T06:22:14;17.70;99.90
28614;DHT22;15806;53.548;9.964;2023-08-07T06:23:55;17.70;99.90
28614;DHT22;15806;53.548;9.964;2023-08-07T06:25:35;17.60;99.90
28614;DHT22;15806;53.548;9.964;2023-08-07T06:27:16;17.60;99.90
28614;DHT22;15806;53.548;9.964;2023-08-07T06:28:56;17.70;99.90
28614;DHT22;15806;53.548;9.964;2023-08-07T06:30:37;17.70;99.90
28614;DHT22;15806;53.548;9.964;2023-08-07T06:32:17;17.70;99.90
28614;DHT22;15806;53.548;9.964;2023-08-07T06:33:58;17.60;99.90
28614;DHT22;15806;53.548;9.964;2023-08-07T06:35:39;17.50;99.90
28614;DHT22;15806;53.548;9.964;2023-08-07T06:37:20;17.60;99.90
28614;DHT22;15806;53.548;9.964;2023-08-07T06:39:00;17.60;99.90
28614;DHT22;15806;53.548;9.964;2023-08-07T06:40:41;17.60;99.90
28614;DHT22;15806;53.548;9.964;2023-08-07T06:42:21;17.60;99.90
28614;DHT22;15806;53.548;9.964;2023-08-07T06:44:02;17.60;99.90
28614;DHT22;15806;53.548;9.964;2023-08-07T06:45:42;17.60;99.90
28614;DHT22;15806;53.548;9.964;2023-08-07T06:47:23;17.50;99.90
28614;DHT22;15806;53.548;9.964;2023-08-07T06:49:03;17.50;99.90
28614;DHT22;15806;53.548;9.964;2023-08-07T06:50:45;17.50;99.90
28614;DHT22;15806;53.548;9.964;2023-08-07T06:52:26;17.40;99.90
28614;DHT22;15806;53.548;9.964;2023-08-07T06:54:06;17.40;99.90
28614;DHT22;15806;53.548;9.964;2023-08-07T06:55:47;17.50;99.90
28614;DHT22;15806;53.548;9.964;2023-08-07T06:57:27;17.50;99.90
28614;DHT22;15806;53.548;9.964;2023-08-07T06:59:08;17.50;99.90
28614;DHT22;15806;53.548;9.964;2023-08-07T07:00:50;17.40;99.90
28614;DHT22;15806;53.548;9.964;2023-08-07T07:06:40;17.40;99.90
28614;DHT22;15806;53.548;9.964;2023-08-07T07:08:21;17.40;99.90
28614;DHT22;15806;53.548;9.964;2023-08-07T07:14:43;17.10;99.90
28614;DHT22;15806;53.548;9.964;2023-08-07T07:16:26;16.90;99.90
28614;DHT22;15806;53.548;9.964;2023-08-07T07:18:07;16.90;99.90
28614;DHT22;15806;53.548;9.964;2023-08-07T07:20:07;17.00;99.90
28614;DHT22;15806;53.548;9.964;2023-08-07T07:31:31;17.30;99.90
28614;DHT22;15806;53.548;9.964;2023-08-07T07:35:45;17.10;99.90
28614;DHT22;15806;53.548;9.964;2023-08-07T07:37:30;16.90;99.90
28614;DHT22;15806;53.548;9.964;2023-08-07T07:39:47;16.70;99.90
28614;DHT22;15806;53.548;9.964;2023-08-07T07:41:28;16.60;99.90
28614;DHT22;15806;53.548;9.964;2023-08-07T07:43:18;16.70;99.90
28614;DHT22;15806;53.548;9.964;2023-08-07T07:44:59;17.00;99.90
28614;DHT22;15806;53.548;9.964;2023-08-07T07:46:42;17.00;99.90
28614;DHT22;15806;53.548;9.964;2023-08-07T07:48:29;17.30;99.90
28614;DHT22;15806;53.548;9.964;2023-08-07T07:50:25;17.50;99.90
28614;DHT22;15806;53.548;9.964;2023-08-07T07:52:09;17.80;99.90
28614;DHT22;15806;53.548;9.964;2023-08-07T07:53:50;18.00;99.90
28614;DHT22;15806;53.548;9.964;2023-08-07T07:55:31;18.20;99.90
28614;DHT22;15806;53.548;9.964;2023-08-07T07:57:12;18.50;99.90
28614;DHT22;15806;53.548;9.964;2023-08-07T07:59:01;18.80;99.90
28614;DHT22;15806;53.548;9.964;2023-08-07T08:00:42;18.60;99.90
28614;DHT22;15806;53.548;9.964;2023-08-07T08:02:22;18.60;99.90
28614;DHT22;15806;53.548;9.964;2023-08-07T08:04:03;18.30;99.90
28614;DHT22;15806;53.548;9.964;2023-08-07T08:05:44;18.30;99.90
28614;DHT22;15806;53.548;9.964;2023-08-07T08:07:24;18.20;99.90
28614;DHT22;15806;53.548;9.964;2023-08-07T08:09:05;18.00;99.90
28614;DHT22;15806;53.548;9.964;2023-08-07T08:10:46;17.70;99.90
28614;DHT22;15806;53.548;9.964;2023-08-07T08:12:26;17.50;99.90
28614;DHT22;15806;53.548;9.964;2023-08-07T08:14:07;17.40;99.90
28614;DHT22;15806;53.548;9.964;2023-08-07T08:15:47;17.40;99.90
28614;DHT22;15806;53.548;9.964;2023-08-07T08:17:28;17.30;99.90
28614;DHT22;15806;53.548;9.964;2023-08-07T08:19:08;17.10;99.90
28614;DHT22;15806;53.548;9.964;2023-08-07T08:20:49;17.00;99.90
28614;DHT22;15806;53.548;9.964;2023-08-07T08:22:30;17.00;99.90
28614;DHT22;15806;53.548;9.964;2023-08-07T08:24:11;17.10;99.90
28614;DHT22;15806;53.548;9.964;2023-08-07T08:25:51;17.00;99.90
28614;DHT22;15806;53.548;9.964;2023-08-07T08:27:32;17.00;99.90
28614;DHT22;15806;53.548;9.964;2023-08-07T08:29:14;17.10;99.90
28614;DHT22;15806;53.548;9.964;2023-08-07T08:30:55;17.10;99.90
28614;DHT22;15806;53.548;9.964;2023-08-07T08:32:35;17.10;99.90
28614;DHT22;15806;53.548;9.964;2023-08-07T08:34:16;17.20;99.90
28614;DHT22;15806;53.548;9.964;2023-08-07T08:35:56;17.30;99.90
28614;DHT22;15806;53.548;9.964;2023-08-07T08:37:37;17.20;99.90
28614;DHT22;15806;53.548;9.964;2023-08-07T08:39:17;17.00;99.90
28614;DHT22;15806;53.548;9.964;2023-08-07T08:41:02;17.00;99.90
28614;DHT22;15806;53.548;9.964;2023-08-07T08:42:43;17.00;99.90
28614;DHT22;15806;53.548;9.964;2023-08-07T08:44:25;17.10;99.90
28614;DHT22;15806;53.548;9.964;2023-08-07T08:46:06;17.40;99.90
28614;DHT22;15806;53.548;9.964;2023-08-07T08:47:49;17.80;99.90
28614;DHT22;15806;53.548;9.964;2023-08-07T08:49:35;17.90;99.90
28614;DHT22;15806;53.548;9.964;2023-08-07T08:51:19;17.80;99.90
28614;DHT22;15806;53.548;9.964;2023-08-07T08:53:00;17.70;99.90
28614;DHT22;15806;53.548;9.964;2023-08-07T08:54:43;17.60;99.90
28614;DHT22;15806;53.548;9.964;2023-08-07T08:56:24;17.70;99.90
28614;DHT22;15806;53.548;9.964;2023-08-07T08:58:05;17.50;99.90
28614;DHT22;15806;53.548;9.964;2023-08-07T08:59:46;17.50;99.90
28614;DHT22;15806;53.548;9.964;2023-08-07T09:01:27;17.30;99.90
28614;DHT22;15806;53.548;9.964;2023-08-07T09:03:07;17.20;99.90
28614;DHT22;15806;53.548;9.964;2023-08-07T09:04:48;17.10;99.90
28614;DHT22;15806;53.548;9.964;2023-08-07T09:06:31;17.20;99.90
28614;DHT22;15806;53.548;9.964;2023-08-07T09:08:12;17.40;99.90
28614;DHT22;15806;53.548;9.964;2023-08-07T09:09:53;17.50;99.90
28614;DHT22;15806;53.548;9.964;2023-08-07T09:11:35;17.50;99.90
28614;DHT22;15806;53.548;9.964;2023-08-07T09:13:18;17.60;99.90
28614;DHT22;15806;53.548;9.964;2023-08-07T09:15:03;17.60;99.90
28614;DHT22;15806;53.548;9.964;2023-08-07T09:16:48;17.70;99.90
28614;DHT22;15806;53.548;9.964;2023-08-07T09:18:29;17.90;99.90
28614;DHT22;15806;53.548;9.964;2023-08-07T09:20:10;18.00;99.90
28614;DHT22;15806;53.548;9.964;2023-08-07T09:21:50;18.20;99.90
28614;DHT22;15806;53.548;9.964;2023-08-07T09:23:31;18.20;99.90
28614;DHT22;15806;53.548;9.964;2023-08-07T09:25:11;18.40;99.90
28614;DHT22;15806;53.548;9.964;2023-08-07T09:26:52;18.20;99.90
28614;DHT22;15806;53.548;9.964;2023-08-07T09:28:32;18.10;99.90
28614;DHT22;15806;53.548;9.964;2023-08-07T09:30:13;17.90;99.90
28614;DHT22;15806;53.548;9.964;2023-08-07T09:31:56;17.90;99.90
28614;DHT22;15806;53.548;9.964;2023-08-07T09:33:39;18.10;99.90
28614;DHT22;15806;53.548;9.964;2023-08-07T09:35:22;18.20;99.90
28614;DHT22;15806;53.548;9.964;2023-08-07T09:37:03;18.10;99.90
28614;DHT22;15806;53.548;9.964;2023-08-07T09:38:44;18.10;3.80
28614;DHT22;15806;53.548;9.964;2023-08-07T09:40:25;18.20;99.90
28614;DHT22;15806;53.548;9.964;2023-08-07T09:42:16;18.40;99.90
28614;DHT22;15806;53.548;9.964;2023-08-07T09:43:57;18.60;68.20
28614;DHT22;15806;53.548;9.964;2023-08-07T09:45:40;18.60;1.00
28614;DHT22;15806;53.548;9.964;2023-08-07T09:47:20;18.50;99.90
28614;DHT22;15806;53.548;9.964;2023-08-07T09:49:01;18.60;99.90
28614;DHT22;15806;53.548;9.964;2023-08-07T09:50:41;18.60;99.90
28614;DHT22;15806;53.548;9.964;2023-08-07T09:52:24;18.40;99.90
28614;DHT22;15806;53.548;9.964;2023-08-07T09:54:05;18.50;99.90
28614;DHT22;15806;53.548;9.964;2023-08-07T09:55:47;18.40;99.90
28614;DHT22;15806;53.548;9.964;2023-08-07T09:57:27;18.30;99.90
28614;DHT22;15806;53.548;9.964;2023-08-07T09:59:08;18.20;99.90
28614;DHT22;15806;53.548;9.964;2023-08-07T10:00:49;18.30;1.00
28614;DHT22;15806;53.548;9.964;2023-08-07T10:02:30;18.40;1.00
28614;DHT22;15806;53.548;9.964;2023-08-07T10:04:10;18.70;99.90
28614;DHT22;15806;53.548;9.964;2023-08-07T10:05:51;18.60;99.90
28614;DHT22;15806;53.548;9.964;2023-08-07T10:07:32;18.60;99.90
28614;DHT22;15806;53.548;9.964;2023-08-07T10:09:13;18.50;1.00
28614;DHT22;15806;53.548;9.964;2023-08-07T10:10:53;18.60;99.90
28614;DHT22;15806;53.548;9.964;2023-08-07T10:12:34;18.60;1.00
28614;DHT22;15806;53.548;9.964;2023-08-07T10:14:15;18.50;1.00
28614;DHT22;15806;53.548;9.964;2023-08-07T10:15:56;18.60;99.90
28614;DHT22;15806;53.548;9.964;2023-08-07T10:17:38;18.90;12.60
28614;DHT22;15806;53.548;9.964;2023-08-07T10:19:18;19.10;1.00
28614;DHT22;15806;53.548;9.964;2023-08-07T10:21:01;19.20;1.00
28614;DHT22;15806;53.548;9.964;2023-08-07T10:22:42;19.20;1.00
28614;DHT22;15806;53.548;9.964;2023-08-07T10:24:23;19.30;1.00
28614;DHT22;15806;53.548;9.964;2023-08-07T10:26:08;19.30;1.00
28614;DHT22;15806;53.548;9.964;2023-08-07T10:27:53;19.20;99.90
28614;DHT22;15806;53.548;9.964;2023-08-07T10:29:36;19.20;99.90
28614;DHT22;15806;53.548;9.964;2023-08-07T10:31:18;19.00;1.00
28614;DHT22;15806;53.548;9.964;2023-08-07T10:32:59;18.70;1.00
28614;DHT22;15806;53.548;9.964;2023-08-07T10:34:40;18.50;99.90
28614;DHT22;15806;53.548;9.964;2023-08-07T10:36:22;18.50;99.90
28614;DHT22;15806;53.548;9.964;2023-08-07T10:38:08;18.40;99.90
28614;DHT22;15806;53.548;9.964;2023-08-07T10:40:05;18.30;99.90
28614;DHT22;15806;53.548;9.964;2023-08-07T10:41:48;18.10;1.00
28614;DHT22;15806;53.548;9.964;2023-08-07T10:43:30;18.10;99.90
28614;DHT22;15806;53.548;9.964;2023-08-07T10:45:10;18.00;1.00
28614;DHT22;15806;53.548;9.964;2023-08-07T10:46:56;17.90;99.90
28614;DHT22;15806;53.548;9.964;2023-08-07T10:50:34;18.30;99.90
28614;DHT22;15806;53.548;9.964;2023-08-07T10:52:15;18.40;1.00
28614;DHT22;15806;53.548;9.964;2023-08-07T10:53:56;18.50;1.00
28614;DHT22;15806;53.548;9.964;2023-08-07T10:55:46;18.50;99.90
28614;DHT22;15806;53.548;9.964;2023-08-07T10:57:31;18.90;99.90
28614;DHT22;15806;53.548;9.964;2023-08-07T10:59:12;19.20;1.00
28614;DHT22;15806;53.548;9.964;2023-08-07T11:01:20;19.10;99.90
28614;DHT22;15806;53.548;9.964;2023-08-07T11:03:02;18.70;99.90
28614;DHT22;15806;53.548;9.964;2023-08-07T11:04:43;18.60;99.90
28614;DHT22;15806;53.548;9.964;2023-08-07T11:06:29;18.90;99.90
28614;DHT22;15806;53.548;9.964;2023-08-07T11:08:11;19.30;1.00
28614;DHT22;15806;53.548;9.964;2023-08-07T11:09:52;19.60;4.40